sensor_id;sensor_type;location;lat;lon;timestamp;temperature;humidity
16441;DHT22;8330;-33.858;151.184;2022-07-23T00:01:57;14.60;99.90
16441;DHT22;8330;-33.858;151.184;2022-07-23T00:04:31;14.50;99.90
16441;DHT22;8330;-33.858;151.184;2022-07-23T00:07:03;14.60;99.90
16441;DHT22;8330;-33.858;151.184;2022-07-23T00:09:36;14.70;99.90
16441;DHT22;8330;-33.858;151.184;2022-07-23T00:12:07;14.70;99.90
16441;DHT22;8330;-33.858;151.184;2022-07-23T00:14:38;14.70;99.90
16441;DHT22;8330;-33.858;151.184;2022-07-23T00:17:09;14.80;99.90
16441;DHT22;8330;-33.858;151.184;2022-07-23T00:19:40;14.80;99.90
16441;DHT22;8330;-33.858;151.184;2022-07-23T00:22:10;14.90;99.90
16441;DHT22;8330;-33.858;151.184;2022-07-23T00:24:43;15.00;99.90
16441;DHT22;8330;-33.858;151.184;2022-07-23T00:27:17;15.00;99.90
16441;DHT22;8330;-33.858;151.184;2022-07-23T00:29:47;15.10;99.90
16441;DHT22;8330;-33.858;151.184;2022-07-23T00:32:18;15.20;99.90
16441;DHT22;8330;-33.858;151.184;2022-07-23T00:34:49;15.20;99.90
16441;DHT22;8330;-33.858;151.184;2022-07-23T00:37:20;15.30;99.90
16441;DHT22;8330;-33.858;151.184;2022-07-23T00:39:55;15.20;99.90
16441;DHT22;8330;-33.858;151.184;2022-07-23T00:42:27;15.20;99.90
16441;DHT22;8330;-33.858;151.184;2022-07-23T00:44:57;15.20;99.90
16441;DHT22;8330;-33.858;151.184;2022-07-23T00:47:28;15.20;99.90
16441;DHT22;8330;-33.858;151.184;2022-07-23T00:50:00;15.20;99.90
16441;DHT22;8330;-33.858;151.184;2022-07-23T00:52:32;15.20;99.90
16441;DHT22;8330;-33.858;151.184;2022-07-23T00:55:05;15.30;99.90
16441;DHT22;8330;-33.858;151.184;2022-07-23T00:57:37;15.30;99.90
16441;DHT22;8330;-33.858;151.184;2022-07-23T01:00:11;15.20;99.90
16441;DHT22;8330;-33.858;151.184;2022-07-23T01:02:43;15.20;99.90
16441;DHT22;8330;-33.858;151.184;2022-07-23T01:05:15;15.10;99.90
16441;DHT22;8330;-33.858;151.184;2022-07-23T01:07:50;15.10;99.90
16441;DHT22;8330;-33.858;151.184;2022-07-23T01:10:24;15.10;99.90
16441;DHT22;8330;-33.858;151.184;2022-07-23T01:13:02;15.20;99.90
16441;DHT22;8330;-33.858;151.184;2022-07-23T01:15:34;15.20;99.90
16441;DHT22;8330;-33.858;151.184;2022-07-23T01:18:06;15.20;99.90
16441;DHT22;8330;-33.858;151.184;2022-07-23T01:20:40;15.20;99.90
16441;DHT22;8330;-33.858;151.184;2022-07-23T01:23:12;15.30;99.90
16441;DHT22;8330;-33.858;151.184;2022-07-23T01:25:49;15.20;99.90
16441;DHT22;8330;-33.858;151.184;2022-07-23T01:28:23;15.30;99.90
16441;DHT22;8330;-33.858;151.184;2022-07-23T01:30:54;15.30;99.90
16441;DHT22;8330;-33.858;151.184;2022-07-23T01:33:24;15.40;99.90
16441;DHT22;8330;-33.858;151.184;2022-07-23T01:35:55;15.40;99.90
16441;DHT22;8330;-33.858;151.184;2022-07-23T01:38:29;15.40;99.90
16441;DHT22;8330;-33.858;151.184;2022-07-23T01:41:01;15.50;99.90
16441;DHT22;8330;-33.858;151.184;2022-07-23T01:43:33;15.60;99.90
16441;DHT22;8330;-33.858;151.184;2022-07-23T01:46:03;15.60;99.90
16441;DHT22;8330;-33.858;151.184;2022-07-23T01:48:35;15.60;99.90
16441;DHT22;8330;-33.858;151.184;2022-07-23T01:51:06;15.70;99.90
16441;DHT22;8330;-33.858;151.184;2022-07-23T01:53:38;15.70;99.90
16441;DHT22;8330;-33.858;151.184;2022-07-23T01:56:09;15.70;99.90
16441;DHT22;8330;-33.858;151.184;2022-07-23T01:58:39;15.60;99.90
16441;DHT22;8330;-33.858;151.184;2022-07-23T02:01:10;15.70;99.90
16441;DHT22;8330;-33.858;151.184;2022-07-23T02:03:41;15.80;99.90
16441;DHT22;8330;-33.858;151.184;2022-07-23T02:06:11;15.80;99.90
16441;DHT22;8330;-33.858;151.184;2022-07-23T02:08:44;15.90;99.90
16441;DHT22;8330;-33.858;151.184;2022-07-23T02:11:15;15.90;99.90
16441;DHT22;8330;-33.858;151.184;2022-07-23T02:13:46;15.90;99.90
16441;DHT22;8330;-33.858;151.184;2022-07-23T02:16:16;16.00;99.90
16441;DHT22;8330;-33.858;151.184;2022-07-23T02:18:47;16.20;99.90
16441;DHT22;8330;-33.858;151.184;2022-07-23T02:21:18;16.20;99.90
16441;DHT22;8330;-33.858;151.184;2022-07-23T02:23:51;16.30;99.90
16441;DHT22;8330;-33.858;151.184;2022-07-23T02:26:21;16.40;99.90
16441;DHT22;8330;-33.858;151.184;2022-07-23T02:28:52;16.40;99.90
16441;DHT22;8330;-33.858;151.184;2022-07-23T02:31:22;16.40;99.90
16441;DHT22;8330;-33.858;151.184;2022-07-23T02:33:54;16.50;99.90
16441;DHT22;8330;-33.858;151.184;2022-07-23T02:36:25;16.40;99.90
16441;DHT22;8330;-33.858;151.184;2022-07-23T02:38:58;16.60;99.90
16441;DHT22;8330;-33.858;151.184;2022-07-23T02:41:29;16.60;99.90
16441;DHT22;8330;-33.858;151.184;2022-07-23T02:44:00;16.60;99.90
16441;DHT22;8330;-33.858;151.184;2022-07-23T02:46:31;16.50;99.90
16441;DHT22;8330;-33.858;151.184;2022-07-23T02:49:02;16.50;99.90
16441;DHT22;8330;-33.858;151.184;2022-07-23T02:51:33;16.40;99.90
16441;DHT22;8330;-33.858;151.184;2022-07-23T02:54:07;16.40;99.90
16441;DHT22;8330;-33.858;151.184;2022-07-23T02:56:38;16.30;99.90
16441;DHT22;8330;-33.858;151.184;2022-07-23T02:59:08;16.20;99.90
16441;DHT22;8330;-33.858;151.184;2022-07-23T03:01:39;16.20;99.90
16441;DHT22;8330;-33.858;151.184;2022-07-23T03:04:13;16.10;99.90
16441;DHT22;8330;-33.858;151.184;2022-07-23T03:06:43;16.20;99.90
16441;DHT22;8330;-33.858;151.184;2022-07-23T03:09:16;16.10;99.90
16441;DHT22;8330;-33.858;151.184;2022-07-23T03:11:47;16.20;99.90
16441;DHT22;8330;-33.858;151.184;2022-07-23T03:14:17;16.20;99.90
16441;DHT22;8330;-33.858;151.184;2022-07-23T03:16:48;16.20;99.90
16441;DHT22;8330;-33.858;151.184;2022-07-23T03:19:19;16.30;99.90
16441;DHT22;8330;-33.858;151.184;2022-07-23T03:21:50;16.40;99.90
16441;DHT22;8330;-33.858;151.184;2022-07-23T03:24:22;16.40;99.90
16441;DHT22;8330;-33.858;151.184;2022-07-23T03:27:13;16.50;99.90
16441;DHT22;8330;-33.858;151.184;2022-07-23T03:29:45;16.50;99.90
16441;DHT22;8330;-33.858;151.184;2022-07-23T03:32:16;16.50;99.90
16441;DHT22;8330;-33.858;151.184;2022-07-23T03:34:47;16.50;99.90
16441;DHT22;8330;-33.858;151.184;2022-07-23T03:37:18;16.40;99.90
16441;DHT22;8330;-33.858;151.184;2022-07-23T03:39:50;16.40;99.90
16441;DHT22;8330;-33.858;151.184;2022-07-23T03:42:21;16.50;99.90
16441;DHT22;8330;-33.858;151.184;2022-07-23T03:44:52;16.50;99.90
16441;DHT22;8330;-33.858;151.184;2022-07-23T03:47:22;16.50;99.90
16441;DHT22;8330;-33.858;151.184;2022-07-23T03:49:53;16.50;99.90
16441;DHT22;8330;-33.858;151.184;2022-07-23T03:52:24;16.60;99.90
16441;DHT22;8330;-33.858;151.184;2022-07-23T03:54:56;16.70;99.90
16441;DHT22;8330;-33.858;151.184;2022-07-23T03:57:27;16.80;99.90
16441;DHT22;8330;-33.858;151.184;2022-07-23T03:59:58;16.80;99.90
16441;DHT22;8330;-33.858;151.184;2022-07-23T04:02:28;16.90;99.90
16441;DHT22;8330;-33.858;151.184;2022-07-23T04:04:59;16.90;99.90
16441;DHT22;8330;-33.858;151.184;2022-07-23T04:07:30;16.90;99.90
16441;DHT22;8330;-33.858;151.184;2022-07-23T04:10:03;16.80;99.90
16441;DHT22;8330;-33.858;151.184;2022-07-23T04:12:34;16.80;99.90
16441;DHT22;8330;-33.858;151.184;2022-07-23T04:15:07;16.70;99.90
16441;DHT22;8330;-33.858;151.184;2022-07-23T04:17:38;16.70;99.90
16441;DHT22;8330;-33.858;151.184;2022-07-23T04:20:09;16.70;99.90
16441;DHT22;8330;-33.858;151.184;2022-07-23T04:22:41;16.80;99.90
16441;DHT22;8330;-33.858;151.184;2022-07-23T04:25:15;16.80;99.90
16441;DHT22;8330;-33.858;151.184;2022-07-23T04:27:46;17.00;99.90
16441;DHT22;8330;-33.858;151.184;2022-07-23T04:30:17;17.00;99.90
16441;DHT22;8330;-33.858;151.184;2022-07-23T04:32:47;17.00;99.90
16441;DHT22;8330;-33.858;151.184;2022-07-23T04:35:18;16.90;99.90
16441;DHT22;8330;-33.858;151.184;2022-07-23T04:37:49;16.90;99.90
16441;DHT22;8330;-33.858;151.184;2022-07-23T04:40:21;16.80;99.90
16441;DHT22;8330;-33.858;151.184;2022-07-23T04:42:52;16.80;99.90
16441;DHT22;8330;-33.858;151.184;2022-07-23T04:45:23;16.80;99.90
16441;DHT22;8330;-33.858;151.184;2022-07-23T04:47:54;16.80;99.90
16441;DHT22;8330;-33.858;151.184;2022-07-23T04:50:25;16.90;99.90
16441;DHT22;8330;-33.858;151.184;2022-07-23T04:52:56;17.00;99.90
16441;DHT22;8330;-33.858;151.184;2022-07-23T04:55:28;16.90;99.90
16441;DHT22;8330;-33.858;151.184;2022-07-23T04:57:59;16.90;99.90
16441;DHT22;8330;-33.858;151.184;2022-07-23T05:00:30;16.80;99.90
16441;DHT22;8330;-33.858;151.184;2022-07-23T05:03:01;16.80;99.90
16441;DHT22;8330;-33.858;151.184;2022-07-23T05:05:33;16.70;99.90
16441;DHT22;8330;-33.858;151.184;2022-07-23T05:08:04;16.70;99.90
16441;DHT22;8330;-33.858;151.184;2022-07-23T05:10:36;16.80;99.90
16441;DHT22;8330;-33.858;151.184;2022-07-23T05:13:07;16.80;99.90
16441;DHT22;8330;-33.858;151.184;2022-07-23T05:15:38;16.80;99.90
16441;DHT22;8330;-33.858;151.184;2022-07-23T05:18:09;16.80;99.90
16441;DHT22;8330;-33.858;151.184;2022-07-23T05:20:40;16.80;99.90
16441;DHT22;8330;-33.858;151.184;2022-07-23T05:23:11;16.90;99.90
16441;DHT22;8330;-33.858;151.184;2022-07-23T05:25:43;16.80;99.90
16441;DHT22;8330;-33.858;151.184;2022-07-23T05:28:14;16.90;99.90
16441;DHT22;8330;-33.858;151.184;2022-07-23T05:30:45;16.70;99.90
16441;DHT22;8330;-33.858;151.184;2022-07-23T05:33:17;16.70;99.90
16441;DHT22;8330;-33.858;151.184;2022-07-23T05:35:48;16.70;99.90
16441;DHT22;8330;-33.858;151.184;2022-07-23T05:38:19;16.70;99.90
16441;DHT22;8330;-33.858;151.184;2022-07-23T05:40:51;16.70;99.90
16441;DHT22;8330;-33.858;151.184;2022-07-23T05:43:22;16.60;99.90
16441;DHT22;8330;-33.858;151.184;2022-07-23T05:45:53;16.60;99.90
16441;DHT22;8330;-33.858;151.184;2022-07-23T05:48:24;16.60;99.90
16441;DHT22;8330;-33.858;151.184;2022-07-23T05:50:55;16.60;99.90
16441;DHT22;8330;-33.858;151.184;2022-07-23T05:53:27;16.60;99.90
16441;DHT22;8330;-33.858;151.184;2022-07-23T05:56:00;16.60;99.90
16441;DHT22;8330;-33.858;151.184;2022-07-23T05:58:31;16.60;99.90
16441;DHT22;8330;-33.858;151.184;2022-07-23T06:01:01;16.60;99.90
16441;DHT22;8330;-33.858;151.184;2022-07-23T06:03:32;16.60;99.90
16441;DHT22;8330;-33.858;151.184;2022-07-23T06:06:03;16.60;99.90
16441;DHT22;8330;-33.858;151.184;2022-07-23T06:08:34;16.50;99.90
16441;DHT22;8330;-33.858;151.184;2022-07-23T06:11:06;16.50;99.90
16441;DHT22;8330;-33.858;151.184;2022-07-23T06:13:37;16.50;99.90
16441;DHT22;8330;-33.858;151.184;2022-07-23T06:16:07;16.50;99.90
16441;DHT22;8330;-33.858;151.184;2022-07-23T06:18:41;16.50;99.90
16441;DHT22;8330;-33.858;151.184;2022-07-23T06:21:12;16.40;99.90
16441;DHT22;8330;-33.858;151.184;2022-07-23T06:23:43;16.40;99.90
16441;DHT22;8330;-33.858;151.184;2022-07-23T06:26:15;16.40;99.90
16441;DHT22;8330;-33.858;151.184;2022-07-23T06:28:46;16.40;99.90
16441;DHT22;8330;-33.858;151.184;2022-07-23T06:31:17;16.40;99.90
16441;DHT22;8330;-33.858;151.184;2022-07-23T06:33:48;16.40;99.90
16441;DHT22;8330;-33.858;151.184;2022-07-23T06:36:18;16.40;99.90
16441;DHT22;8330;-33.858;151.184;2022-07-23T06:38:49;16.40;99.90
16441;DHT22;8330;-33.858;151.184;2022-07-23T06:41:22;16.30;99.90
16441;DHT22;8330;-33.858;151.184;2022-07-23T06:43:53;16.30;99.90
16441;DHT22;8330;-33.858;151.184;2022-07-23T06:46:24;16.30;99.90
16441;DHT22;8330;-33.858;151.184;2022-07-23T06:48:54;16.30;99.90
16441;DHT22;8330;-33.858;151.184;2022-07-23T06:51:25;16.20;99.90
16441;DHT22;8330;-33.858;151.184;2022-07-23T06:53:56;16.20;99.90
16441;DHT22;8330;-33.858;151.184;2022-07-23T06:56:28;16.10;99.90
16441;DHT22;8330;-33.858;151.184;2022-07-23T06:59:00;16.10;99.90
16441;DHT22;8330;-33.858;151.184;2022-07-23T07:01:30;16.10;99.90
16441;DHT22;8330;-33.858;151.184;2022-07-23T07:04:01;16.10;99.90
16441;DHT22;8330;-33.858;151.184;2022-07-23T07:06:33;16.00;99.90
16441;DHT22;8330;-33.858;151.184;2022-07-23T07:09:05;16.00;99.90
16441;DHT22;8330;-33.858;151.184;2022-07-23T07:11:37;16.10;99.90
16441;DHT22;8330;-33.858;151.184;2022-07-23T07:14:08;16.00;99.90
16441;DHT22;8330;-33.858;151.184;2022-07-23T07:16:39;16.00;99.90
16441;DHT22;8330;-33.858;151.184;2022-07-23T07:19:12;16.00;99.90
16441;DHT22;8330;-33.858;151.184;2022-07-23T07:21:45;15.90;99.90
16441;DHT22;8330;-33.858;151.184;2022-07-23T07:24:17;15.90;99.90
16441;DHT22;8330;-33.858;151.184;2022-07-23T07:26:49;15.90;99.90
16441;DHT22;8330;-33.858;151.184;2022-07-23T07:29:20;15.80;99.90
16441;DHT22;8330;-33.858;151.184;2022-07-23T07:31:51;15.80;99.90
16441;DHT22;8330;-33.858;151.184;2022-07-23T07:34:22;15.80;99.90
16441;DHT22;8330;-33.858;151.184;2022-07-23T07:36:52;15.80;99.90
16441;DHT22;8330;-33.858;151.184;2022-07-23T07:39:23;15.80;99.90
16441;DHT22;8330;-33.858;151.184;2022-07-23T07:41:58;15.80;99.90
16441;DHT22;8330;-33.858;151.184;2022-07-23T07:44:32;15.70;99.90
16441;DHT22;8330;-33.858;151.184;2022-07-23T07:47:03;15.70;99.90
16441;DHT22;8330;-33.858;151.184;2022-07-23T07:49:34;15.60;99.90
16441;DHT22;8330;-33.858;151.184;2022-07-23T07:52:05;15.60;99.90
16441;DHT22;8330;-33.858;151.184;2022-07-23T07:54:36;15.60;99.90
16441;DHT22;8330;-33.858;151.184;2022-07-23T07:57:09;15.60;99.90
16441;DHT22;8330;-33.858;151.184;2022-07-23T07:59:39;15.60;99.90
16441;DHT22;8330;-33.858;151.184;2022-07-23T08:02:10;15.50;99.90
16441;DHT22;8330;-33.858;151.184;2022-07-23T08:04:41;15.50;99.90
16441;DHT22;8330;-33.858;151.184;2022-07-23T08:07:12;15.50;99.90
16441;DHT22;8330;-33.858;151.184;2022-07-23T08:09:43;15.50;99.90
16441;DHT22;8330;-33.858;151.184;2022-07-23T08:12:16;15.50;99.90
16441;DHT22;8330;-33.858;151.184;2022-07-23T08:14:46;15.50;99.90
16441;DHT22;8330;-33.858;151.184;2022-07-23T08:17:17;15.50;99.90
16441;DHT22;8330;-33.858;151.184;2022-07-23T08:19:48;15.40;99.90
16441;DHT22;8330;-33.858;151.184;2022-07-23T08:22:18;15.40;99.90
16441;DHT22;8330;-33.858;151.184;2022-07-23T08:24:50;15.40;99.90
16441;DHT22;8330;-33.858;151.184;2022-07-23T08:27:22;15.40;99.90
16441;DHT22;8330;-33.858;151.184;2022-07-23T08:29:53;15.50;99.90
16441;DHT22;8330;-33.858;151.184;2022-07-23T08:32:24;15.40;99.90
16441;DHT22;8330;-33.858;151.184;2022-07-23T08:34:54;15.40;99.90
16441;DHT22;8330;-33.858;151.184;2022-07-23T08:37:25;15.40;99.90
16441;DHT22;8330;-33.858;151.184;2022-07-23T08:39:56;15.40;99.90
16441;DHT22;8330;-33.858;151.184;2022-07-23T08:42:28;15.40;99.90
16441;DHT22;8330;-33.858;151.184;2022-07-23T08:44:59;15.40;99.90
16441;DHT22;8330;-33.858;151.184;2022-07-23T08:47:30;15.40;99.90
16441;DHT22;8330;-33.858;151.184;2022-07-23T08:50:02;15.40;99.90
16441;DHT22;8330;-33.858;151.184;2022-07-23T08:52:34;15.40;99.90
16441;DHT22;8330;-33.858;151.184;2022-07-23T08:55:05;15.40;99.90
16441;DHT22;8330;-33.858;151.184;2022-07-23T08:57:38;15.40;99.90
16441;DHT22;8330;-33.858;151.184;2022-07-23T09:00:09;15.40;99.90
16441;DHT22;8330;-33.858;151.184;2022-07-23T09:02:41;15.40;99.90
16441;DHT22;8330;-33.858;151.184;2022-07-23T09:05:12;15.30;99.90
16441;DHT22;8330;-33.858;151.184;2022-07-23T09:08:07;15.30;99.90
16441;DHT22;8330;-33.858;151.184;2022-07-23T09:10:54;15.30;99.90
16441;DHT22;8330;-33.858;151.184;2022-07-23T09:13:34;15.30;99.90
16441;DHT22;8330;-33.858;151.184;2022-07-23T09:16:07;15.30;99.90
16441;DHT22;8330;-33.858;151.184;2022-07-23T09:18:41;15.20;99.90
16441;DHT22;8330;-33.858;151.184;2022-07-23T09:21:21;15.20;99.90
16441;DHT22;8330;-33.858;151.184;2022-07-23T09:23:54;15.20;99.90
16441;DHT22;8330;-33.858;151.184;2022-07-23T09:26:34;15.20;99.90
16441;DHT22;8330;-33.858;151.184;2022-07-23T09:29:09;15.20;99.90
16441;DHT22;8330;-33.858;151.184;2022-07-23T09:31:49;15.20;99.90
16441;DHT22;8330;-33.858;151.184;2022-07-23T09:34:24;15.20;99.90
16441;DHT22;8330;-33.858;151.184;2022-07-23T09:37:09;15.20;99.90
16441;DHT22;8330;-33.858;151.184;2022-07-23T09:39:41;15.20;99.90
16441;DHT22;8330;-33.858;151.184;2022-07-23T09:42:16;15.20;99.90
16441;DHT22;8330;-33.858;151.184;2022-07-23T09:44:53;15.20;99.90
16441;DHT22;8330;-33.858;151.184;2022-07-23T09:47:31;15.20;99.90
16441;DHT22;8330;-33.858;151.184;2022-07-23T09:50:03;15.10;99.90
16441;DHT22;8330;-33.858;151.184;2022-07-23T09:52:49;15.10;99.90
16441;DHT22;8330;-33.858;151.184;2022-07-23T09:55:20;15.10;99.90
16441;DHT22;8330;-33.858;151.184;2022-07-23T09:58:03;15.10;99.90
16441;DHT22;8330;-33.858;151.184;2022-07-23T10:00:36;15.00;99.90
16441;DHT22;8330;-33.858;151.184;2022-07-23T10:03:07;15.10;99.90
16441;DHT22;8330;-33.858;151.184;2022-07-23T10:05:42;15.10;99.90
16441;DHT22;8330;-33.858;151.184;2022-07-23T10:08:18;15.10;99.90
16441;DHT22;8330;-33.858;151.184;2022-07-23T10:10:52;15.10;99.90
16441;DHT22;8330;-33.858;151.184;2022-07-23T10:13:24;15.00;99.90
16441;DHT22;8330;-33.858;151.184;2022-07-23T10:16:37;15.00;99.90
16441;DHT22;8330;-33.858;151.184;2022-07-23T10:19:08;15.00;99.90
16441;DHT22;8330;-33.858;151.184;2022-07-23T10:21:52;15.00;99.90
16441;DHT22;8330;-33.858;151.184;2022-07-23T10:24:52;15.00;99.90
16441;DHT22;8330;-33.858;151.184;2022-07-23T10:31:25;14.90;99.90
16441;DHT22;8330;-33.858;151.184;2022-07-23T10:34:12;14.80;99.90
16441;DHT22;8330;-33.858;151.184;2022-07-23T10:36:54;14.90;99.90
16441;DHT22;8330;-33.858;151.184;2022-07-23T10:39:40;14.80;99.90
16441;DHT22;8330;-33.858;151.184;2022-07-23T10:42:15;14.70;99.90
16441;DHT22;8330;-33.858;151.184;2022-07-23T10:44:57;14.70;99.90
16441;DHT22;8330;-33.858;151.184;2022-07-23T10:47:34;14.60;99.90
16441;DHT22;8330;-33.858;151.184;2022-07-23T10:50:30;14.70;99.90
16441;DHT22;8330;-33.858;151.184;2022-07-23T10:53:14;14.60;99.90
16441;DHT22;8330;-33.858;151.184;2022-07-23T10:55:50;14.60;99.90
16441;DHT22;8330;-33.858;151.184;2022-07-23T10:58:23;14.60;99.90
16441;DHT22;8330;-33.858;151.184;2022-07-23T11:00:54;14.60;99.90
16441;DHT22;8330;-33.858;151.184;2022-07-23T11:03:34;14.60;99.90
16441;DHT22;8330;-33.858;151.184;2022-07-23T11:06:09;14.60;99.90
16441;DHT22;8330;-33.858;151.184;2022-07-23T11:08:48;14.60;99.90
16441;DHT22;8330;-33.858;151.184;2022-07-23T11:11:47;14.60;99.90
16441;DHT22;8330;-33.858;151.184;2022-07-23T11:17:35;14.50;99.90
16441;DHT22;8330;-33.858;151.184;2022-07-23T11:20:24;14.50;99.90
16441;DHT22;8330;-33.858;151.184;2022-07-23T11:22:56;14.60;99.90
16441;DHT22;8330;-33.858;151.184;2022-07-23T11:25:35;14.60;99.90
16441;DHT22;8330;-33.858;151.184;2022-07-23T11:28:19;14.60;99.90
16441;DHT22;8330;-33.858;151.184;2022-07-23T11:30:53;14.60;99.90
16441;DHT22;8330;-33.858;151.184;2022-07-23T11:33:33;14.50;99.90
16441;DHT22;8330;-33.858;151.184;2022-07-23T11:36:07;14.50;99.90
16441;DHT22;8330;-33.858;151.184;2022-07-23T11:38:39;14.40;99.90
16441;DHT22;8330;-33.858;151.184;2022-07-23T11:41:10;14.50;99.90
16441;DHT22;8330;-33.858;151.184;2022-07-23T11:43:41;14.50;99.90
16441;DHT22;8330;-33.858;151.184;2022-07-23T11:46:15;14.50;99.90
16441;DHT22;8330;-33.858;151.184;2022-07-23T11:49:02;14.60;99.90
16441;DHT22;8330;-33.858;151.184;2022-07-23T11:51:36;14.60;99.90
16441;DHT22;8330;-33.858;151.184;2022-07-23T11:54:07;14.60;99.90
16441;DHT22;8330;-33.858;151.184;2022-07-23T11:56:38;14.60;99.90
16441;DHT22;8330;-33.858;151.184;2022-07-23T11:59:26;14.60;99.90
16441;DHT22;8330;-33.858;151.184;2022-07-23T12:02:01;14.60;99.90
16441;DHT22;8330;-33.858;151.184;2022-07-23T12:04:39;14.60;99.90
16441;DHT22;8330;-33.858;151.184;2022-07-23T12:10:17;14.60;99.90
16441;DHT22;8330;-33.858;151.184;2022-07-23T12:12:49;14.50;99.90
16441;DHT22;8330;-33.858;151.184;2022-07-23T12:15:22;14.50;99.90
16441;DHT22;8330;-33.858;151.184;2022-07-23T12:17:53;14.50;99.90
16441;DHT22;8330;-33.858;151.184;2022-07-23T12:20:25;14.50;99.90
16441;DHT22;8330;-33.858;151.184;2022-07-23T12:22:58;14.40;99.90
16441;DHT22;8330;-33.858;151.184;2022-07-23T12:25:31;14.40;99.90
16441;DHT22;8330;-33.858;151.184;2022-07-23T12:28:05;14.40;99.90
16441;DHT22;8330;-33.858;151.184;2022-07-23T12:30:39;14.40;99.90
16441;DHT22;8330;-33.858;151.184;2022-07-23T12:33:10;14.40;99.90
16441;DHT22;8330;-33.858;151.184;2022-07-23T12:35:42;14.40;99.90
16441;DHT22;8330;-33.858;151.184;2022-07-23T12:38:14;14.40;99.90
16441;DHT22;8330;-33.858;151.184;2022-07-23T12:40:48;14.30;99.90
16441;DHT22;8330;-33.858;151.184;2022-07-23T12:43:22;14.30;99.90
16441;DHT22;8330;-33.858;151.184;2022-07-23T12:45:55;14.30;99.90
16441;DHT22;8330;-33.858;151.184;2022-07-23T12:48:28;14.30;99.90
16441;DHT22;8330;-33.858;151.184;2022-07-23T12:51:00;14.30;99.90
16441;DHT22;8330;-33.858;151.184;2022-07-23T12:53:32;14.30;99.90
16441;DHT22;8330;-33.858;151.184;2022-07-23T12:56:11;14.30;99.90
16441;DHT22;8330;-33.858;151.184;2022-07-23T12:58:44;14.30;99.90
16441;DHT22;8330;-33.858;151.184;2022-07-23T13:01:24;14.20;99.90
16441;DHT22;8330;-33.858;151.184;2022-07-23T13:04:00;14.20;99.90
16441;DHT22;8330;-33.858;151.184;2022-07-23T13:06:32;14.20;99.90
16441;DHT22;8330;-33.858;151.184;2022-07-23T13:09:05;14.20;99.90
16441;DHT22;8330;-33.858;151.184;2022-07-23T13:11:38;14.20;99.90
16441;DHT22;8330;-33.858;151.184;2022-07-23T13:14:09;14.20;99.90
16441;DHT22;8330;-33.858;151.184;2022-07-23T13:16:40;14.20;99.90
16441;DHT22;8330;-33.858;151.184;2022-07-23T13:19:11;14.20;99.90
16441;DHT22;8330;-33.858;151.184;2022-07-23T13:21:43;14.20;99.90
16441;DHT22;8330;-33.858;151.184;2022-07-23T13:24:14;14.30;99.90
16441;DHT22;8330;-33.858;151.184;2022-07-23T13:26:46;14.20;99.90
16441;DHT22;8330;-33.858;151.184;2022-07-23T13:29:18;14.20;99.90
16441;DHT22;8330;-33.858;151.184;2022-07-23T13:31:49;14.20;99.90
16441;DHT22;8330;-33.858;151.184;2022-07-23T13:34:20;14.20;99.90
16441;DHT22;8330;-33.858;151.184;2022-07-23T13:36:50;14.20;99.90
16441;DHT22;8330;-33.858;151.184;2022-07-23T13:39:22;14.20;99.90
16441;DHT22;8330;-33.858;151.184;2022-07-23T13:41:55;14.20;99.90
16441;DHT22;8330;-33.858;151.184;2022-07-23T13:44:26;14.10;99.90
16441;DHT22;8330;-33.858;151.184;2022-07-23T13:46:57;14.10;99.90
16441;DHT22;8330;-33.858;151.184;2022-07-23T13:49:29;14.10;99.90
16441;DHT22;8330;-33.858;151.184;2022-07-23T13:51:59;14.10;99.90
16441;DHT22;8330;-33.858;151.184;2022-07-23T13:54:30;14.10;99.90
16441;DHT22;8330;-33.858;151.184;2022-07-23T13:57:03;14.10;99.90
16441;DHT22;8330;-33.858;151.184;2022-07-23T13:59:34;14.10;99.90
16441;DHT22;8330;-33.858;151.184;2022-07-23T14:02:05;14.20;99.90
16441;DHT22;8330;-33.858;151.184;2022-07-23T14:04:36;14.20;99.90
16441;DHT22;8330;-33.858;151.184;2022-07-23T14:07:08;14.10;99.90
16441;DHT22;8330;-33.858;151.184;2022-07-23T14:09:38;14.20;99.90
16441;DHT22;8330;-33.858;151.184;2022-07-23T14:12:12;14.20;99.90
16441;DHT22;8330;-33.858;151.184;2022-07-23T14:14:43;14.20;99.90
16441;DHT22;8330;-33.858;151.184;2022-07-23T14:17:14;14.10;99.90
16441;DHT22;8330;-33.858;151.184;2022-07-23T14:19:45;14.10;99.90
16441;DHT22;8330;-33.858;151.184;2022-07-23T14:22:16;14.10;99.90
16441;DHT22;8330;-33.858;151.184;2022-07-23T14:24:46;14.10;99.90
16441;DHT22;8330;-33.858;151.184;2022-07-23T14:27:19;14.10;99.90
16441;DHT22;8330;-33.858;151.184;2022-07-23T14:29:50;14.00;99.90
16441;DHT22;8330;-33.858;151.184;2022-07-23T14:32:21;14.00;99.90
16441;DHT22;8330;-33.858;151.184;2022-07-23T14:34:52;14.00;99.90
16441;DHT22;8330;-33.858;151.184;2022-07-23T14:37:23;14.00;99.90
16441;DHT22;8330;-33.858;151.184;2022-07-23T14:39:54;14.00;99.90
16441;DHT22;8330;-33.858;151.184;2022-07-23T14:42:26;13.90;99.90
16441;DHT22;8330;-33.858;151.184;2022-07-23T14:44:57;13.90;99.90
16441;DHT22;8330;-33.858;151.184;2022-07-23T14:47:28;13.90;99.90
16441;DHT22;8330;-33.858;151.184;2022-07-23T14:49:59;13.90;99.90
16441;DHT22;8330;-33.858;151.184;2022-07-23T14:52:31;13.90;99.90
16441;DHT22;8330;-33.858;151.184;2022-07-23T14:55:01;13.80;99.90
16441;DHT22;8330;-33.858;151.184;2022-07-23T14:57:35;13.70;99.90
16441;DHT22;8330;-33.858;151.184;2022-07-23T15:00:06;13.70;99.90
16441;DHT22;8330;-33.858;151.184;2022-07-23T15:02:37;13.70;99.90
16441;DHT22;8330;-33.858;151.184;2022-07-23T15:05:08;13.70;99.90
16441;DHT22;8330;-33.858;151.184;2022-07-23T15:07:39;13.70;99.90
16441;DHT22;8330;-33.858;151.184;2022-07-23T15:10:10;13.70;99.90
16441;DHT22;8330;-33.858;151.184;2022-07-23T15:12:43;13.70;99.90
16441;DHT22;8330;-33.858;151.184;2022-07-23T15:15:13;13.70;99.90
16441;DHT22;8330;-33.858;151.184;2022-07-23T15:17:45;13.70;99.90
16441;DHT22;8330;-33.858;151.184;2022-07-23T15:20:17;13.60;99.90
16441;DHT22;8330;-33.858;151.184;2022-07-23T15:22:48;13.60;99.90
16441;DHT22;8330;-33.858;151.184;2022-07-23T15:25:18;13.60;99.90
16441;DHT22;8330;-33.858;151.184;2022-07-23T15:27:52;13.60;99.90
16441;DHT22;8330;-33.858;151.184;2022-07-23T15:30:25;13.50;99.90
16441;DHT22;8330;-33.858;151.184;2022-07-23T15:32:56;13.50;99.90
16441;DHT22;8330;-33.858;151.184;2022-07-23T15:35:27;13.60;99.90
16441;DHT22;8330;-33.858;151.184;2022-07-23T15:37:59;13.60;99.90
16441;DHT22;8330;-33.858;151.184;2022-07-23T15:40:29;13.60;99.90
16441;DHT22;8330;-33.858;151.184;2022-07-23T15:43:03;13.60;99.90
16441;DHT22;8330;-33.858;151.184;2022-07-23T15:45:34;13.50;99.90
16441;DHT22;8330;-33.858;151.184;2022-07-23T15:48:05;13.50;99.90